Кавказ

ЗЦ ЕС ОрВД Кавказ

Макрорегион Единой Системы Организации Воздушного Движения (макрорегион ЕС ОрВД) Кавказ является структурным подразделением VATRUS.

В зону ответственности центра в сети VATSIM входит воздушное пространство над территориями Ростовской, Волгоградской, Астраханской областями; республиками Калмыкия, Дагестан, Чечня, Ингушетия, Северная Осетия - Алания, Карачаево-Черкесская, Адыгея, Крым*; Краснодарским и Ставропольским краями, а так же Грузией, Азербайджаном и Арменией.

Контакты для связи: 

Caucasus ACC Chief (event manager) – Гарифуллин Карим (1463202) – chief@urrv.me
Caucasus ACC Instructor - Полостяной Валерий (1111228) - ins02@urrv.me

Лого Кавказ
Руководство

Karim Garifullin

Куратор
Контакты

FSS региона
Обозначение
RU-SC_CTR
Позывной
Кавказ-Радар
Частота
136.000
Примечание
Top-down
Инструкторы региона
Artem Smychkov (Instructor)
Atsamaz Khodov * (Senior Student)
Denis Zhuchkov * (Controller)
Karim Garifullin (Instructor)
Konstantin Gorbunov * (Controller)
Tigran Areian * (Controller)
Valeriy Polostyanoy (Instructor)
Включает в себя

РПИ Баку
РПИ Ереван
РПИ Ростов-на-Дону
РПИ Тбилиси*

Диспетчеры региона

Диспетчер Рейтинг Допуски *
Artem Smychkov Instructor URRV_CTR
Daniel Ryabkov Senior Student URRV_CTR *
Denis Zhuchkov Controller URRV_CTR
George Kalandadze Controller UGGG_CTR
Grigori Badalov Instructor UBBA_CTR, UDDD_CTR, UGGG_CTR, URRV_CTR
Ivan Chernov Senior Controller UBBA_CTR, UDDD_CTR, UGGG_CTR, URRV_CTR
Karim Garifullin Instructor UBBA_CTR, UDDD_CTR, UGGG_CTR, URRV_CTR
Konstantin Gorbunov Controller URRV_CTR
Tigran Areian Controller UDDD_CTR, URRV_CTR
Valeriy Polostyanoy Instructor UBBA_CTR, UDDD_CTR, UGGG_CTR, URRV_CTR
Alexey Perov Student URSS_GND
Alexey Rodionov Student UBBB_GND
Alexey Zhirnov Student URSS_GND
Alikhan Aidarbek Student URSS_GND
Andrey Kharitonov Student URSS_GND*
Andrey Pelykh Student 2 URSS_TWR!!!*
Andrey Zonov Student 2 UBBB_GND, URSS_TWR!!!
Anton Nikolaev Student 2 URSS_APP*
artem bespalov Student URSS_GND
Artem Tsendrovsky Senior Student UBBB_DEP, UBBB_APP, URWW_APP, URSS_APP
Atsamaz Khodov Senior Student UBBB_TWR, URSS_APP*
Boris Chernov Student URSS_GND
daniel zeev Student URSS_GND
Daniil Lekoncev Student URSS_GND
Danila Lezhnin Student URSS_GND
Denis Zhilyakov Student URSS_GND
Emanuel Teymoorian Student 2 UBBB_DEP*, UBBB_APP*
Evgeny Listratov Student URSS_TWR*
Grigorii Turlykin Student 2 URSS_R_APP*
Ilya Potapov Student URSS_GND*, URRP_GND
Ivan Pyataev Student URSS_GND
Joshua Ong Student 2 UBBB_TWR
Kirill Dolzhantsev Student URSS_GND
Mikhail Petrov Student URSS_GND
Nika Avdalov Student 2 UGKO_TWR, UGSB_TWR, UGTB_TWR
Nikita Murushkin Student URKK_GND, URSS_GND
Renat Yengulatov Student URSS_GND
Roman Kudriavcev Student URSS_TWR!!!*
Roman Shelepov Student 2 URSS_TWR!!!
Sergey Vologzhin Student 2 URSS_GND
Suwan Kim Student 2 UBBB_DEP*, UBBB_APP*, UGTB_TWR
Timofey Krasnov Student URSS_GND
YAKOV PONOMARENKO Student URSS_TWR!!!*
Yaroslav Vasilyev Student 2 URSS_TWR!!!
Yegor Golikov Student URSS_GND

Аэропорты региона

ICAO Город Название Погода
UBBB Баку Баку UBBB 121730Z 32004KT CAVOK 25/19 Q1011 NOSIG
UDYZ Ереван Звартноц UDYZ 121730Z 02022G37KT 9999 NSC 27/11 Q1009 R09/010070 NOSIG
URFF Симферополь Симферополь
URSS Сочи Сочи URSS 121730Z 07002MPS 9999 BKN030 25/23 Q1011 R02/010070 R06/010070 NOSIG RMK R06/12001MPS MT OBSC QFE757
UGTB Тбилиси Тбилиси UGTB 121730Z 04004KT CAVOK 26/15 Q1014 NOSIG
URRY
URKA Анапа Анапа URKA 121730Z 04002MPS 9999 SCT049 24/22 Q1012 R04/010070 TEMPO 2000 TSRA SCT007 BKN016CB RMK QFE755/1007
URWA Астрахань Астрахань URWA 121730Z 00000MPS CAVOK 26/13 Q1016 R09/010070 NOSIG RMK QFE764/1018
UGSB Батуми Батуми UGSB 121730Z 00000KT 9999 OVC033 25/22 Q1012 NOSIG
URMO Владикавказ Беслан URMO 121730Z 18002MPS 9999 SCT055 BKN130 23/20 Q1014 R09/010070 NOSIG RMK QFE717/0956
URWW Волгоград Волгоград URWW 121730Z 08006MPS CAVOK 30/10 Q1017 R06/010070 TEMPO -TSRAGR BKN040CB
UBBQ Габала Габала UBBQ 121800Z 06008KT 9999 NSC 28/07 Q1013 NOSIG RMK MT OP
URKG Геленджик Геленджик
URMG Грозный Грозный URMG 121730Z 10004MPS CAVOK 27/18 Q1011 R08/090070 NOSIG RMK QFE743/0991
UDSG Гюмри Ширак UDSG 121730Z 04012G24KT 9999 NSC 21/10 Q1018 R02/CLRD70 NOSIG
UBBG Гянджа Гянджа UBBG 121730Z 08008KT 9999 FEW100 29/14 Q1011 NOSIG
UDYE Ереван Эребуни
URKK Краснодар Пашковский URKK 121730Z 05003MPS 9999 FEW///CB 24/20 Q1011 R05R/CLRD70 TEMPO 09007G14MPS 0500 +TSRA SCT004 BKN020CB RMK QFE755
UGKO Кутаиси Кутаиси UGKO 121730Z VRB02KT 9999 BKN037 25/22 Q1011 NOSIG
URML Махачкала Уйташ URML 121730Z 15006MPS 9999 NSC 27/21 Q1012 R14/01//70 NOSIG RMK QFE759/1012
URMM Минеральные Воды Минеральные Воды URMM 121730Z 25002MPS 9000 -TSRA BKN036CB 20/18 Q1016 R30/290150 NOSIG RMK QFE733/0978
URMS Назрань Магас
URMN Нальчик Нальчик URMN 121700Z 27002MPS 9999 TS SCT///CB OVC086 24/19 Q1013 R24/010070 NOSIG RMK QFE723
UBBN Нахичевань Нахичевань UBBN 121730Z 12012KT 9999 NSC 29/13 Q1008 NOSIG RMK MT OP QFE682
URRP Ростов-на-Дону Платов URRP 121730Z 27002MPS 210V360 9999 FEW///CB 25/16 Q1014 R05/CLRD70 TEMPO 3000 -TSRAGR SCT007 BKN020CB RMK QFE756/1008
URRR Ростов-на-Дону Ростов-на-Дону
URMT Ставрополь Ставрополь URMT 121730Z 14005MPS 9999 BKN033CB 21/15 Q1015 R07/010070 NOSIG RMK QFE721
URWI Элиста Элиста URWI 121730Z AUTO 12006MPS 9999 // NSC 29/05 Q1015
UGAM Амбролаури Амбролаури UGAM 121730Z AUTO 30004KT 250V320 //// ////// 24/21 Q1014
UBBL Ленкорань Ленкорань UBBL 121800Z 00000KT 9999 NSC 23/17 Q1012 NOSIG RMK MT OP
UGMS Местия Местия UGMS 121730Z AUTO 20003KT 140V230 //// ////// 20/12 Q1021
UGSA Натахтари Натахтари
UGGT Телави Телави